createdAt,value
2023-02-06T00:04:57.698Z,0.2
2023-02-06T00:09:57.692Z,0.2
2023-02-06T00:14:57.822Z,0.1
2023-02-06T00:19:57.742Z,0.1
2023-02-06T00:24:57.727Z,0.1
2023-02-06T00:29:57.695Z,0.1
2023-02-06T00:34:57.706Z,0.1
2023-02-06T00:39:57.707Z,0
2023-02-06T00:44:57.695Z,0
2023-02-06T00:49:57.801Z,-0.1
2023-02-06T00:54:57.800Z,-0.1
2023-02-06T00:59:57.727Z,-0.1
2023-02-06T01:04:57.698Z,-0.1
2023-02-06T01:09:57.703Z,-0.1
2023-02-06T01:14:57.721Z,-0.1
2023-02-06T01:19:57.698Z,-0.2
2023-02-06T01:24:57.690Z,-0.2
2023-02-06T01:29:57.685Z,-0.3
2023-02-06T01:34:57.693Z,-0.3
2023-02-06T01:39:57.751Z,-0.3
2023-02-06T01:44:57.684Z,-0.3
2023-02-06T01:49:57.670Z,-0.3
2023-02-06T01:54:57.665Z,-0.3
2023-02-06T01:59:57.711Z,-0.4
2023-02-06T02:04:57.672Z,-0.4
2023-02-06T02:09:57.705Z,-0.4
2023-02-06T02:14:57.805Z,-0.4
2023-02-06T02:19:57.717Z,-0.4
2023-02-06T02:24:57.688Z,-0.4
2023-02-06T02:29:57.708Z,-0.4
2023-02-06T02:34:57.713Z,-0.4
2023-02-06T02:39:57.713Z,-0.4
2023-02-06T02:44:57.700Z,-0.4
2023-02-06T02:49:57.692Z,-0.4
2023-02-06T02:54:57.679Z,-0.4
2023-02-06T02:59:57.702Z,-0.4
2023-02-06T03:04:57.680Z,-0.4
2023-02-06T03:09:57.709Z,-0.4
2023-02-06T03:14:57.734Z,-0.4
2023-02-06T03:19:57.724Z,-0.4
2023-02-06T03:24:57.704Z,-0.4
2023-02-06T03:29:57.702Z,-0.4
2023-02-06T03:34:57.707Z,-0.4
2023-02-06T03:39:57.744Z,-0.4
2023-02-06T03:44:57.698Z,-0.3
2023-02-06T03:49:57.699Z,-0.3
2023-02-06T03:54:57.728Z,-0.3
2023-02-06T03:59:57.723Z,-0.3
2023-02-06T04:04:57.712Z,-0.3
2023-02-06T04:09:57.727Z,-0.3
2023-02-06T04:14:57.740Z,-0.2
2023-02-06T04:19:57.736Z,-0.2
2023-02-06T04:24:57.723Z,-0.1
2023-02-06T04:29:57.720Z,-0.1
2023-02-06T04:34:57.731Z,-0.1
2023-02-06T04:39:57.751Z,-0.1
2023-02-06T04:44:57.732Z,-0.1
2023-02-06T04:49:57.714Z,0
2023-02-06T04:54:57.819Z,0
2023-02-06T04:59:57.777Z,0.1
2023-02-06T05:04:57.718Z,0.1
2023-02-06T05:09:57.719Z,0.1
2023-02-06T05:14:57.745Z,0.1
2023-02-06T05:19:58.454Z,0.1
2023-02-06T05:24:57.724Z,0.1
2023-02-06T05:29:57.708Z,0.1
2023-02-06T05:34:57.752Z,0.2
2023-02-06T05:39:59.807Z,0.2
2023-02-06T05:44:57.757Z,0.2
2023-02-06T05:49:57.744Z,0.2
2023-02-06T05:54:57.783Z,0.2
2023-02-06T05:59:57.769Z,0.3
2023-02-06T06:04:57.819Z,0.3
2023-02-06T06:09:57.744Z,0.3
2023-02-06T06:14:57.770Z,0.3
2023-02-06T06:19:57.899Z,0.3
2023-02-06T06:24:57.748Z,0.3
2023-02-06T06:29:57.739Z,0.3
2023-02-06T06:34:57.780Z,0.3
2023-02-06T06:39:57.807Z,0.3
2023-02-06T06:44:57.744Z,0.3
2023-02-06T06:49:57.772Z,0.3
2023-02-06T06:54:57.772Z,0.4
2023-02-06T06:59:57.771Z,0.4
2023-02-06T07:04:57.778Z,0.4
2023-02-06T07:09:57.783Z,0.4
2023-02-06T07:14:57.797Z,0.4
2023-02-06T07:19:57.837Z,0.4
2023-02-06T07:24:57.820Z,0.4
2023-02-06T07:29:57.828Z,0.4
2023-02-06T07:34:57.883Z,0.4
2023-02-06T07:39:57.875Z,0.4
2023-02-06T07:44:57.870Z,0.4
2023-02-06T07:49:57.830Z,0.4
2023-02-06T07:54:57.865Z,0.5
2023-02-06T07:59:57.877Z,0.5
2023-02-06T08:04:57.860Z,0.5
2023-02-06T08:09:57.842Z,0.5
2023-02-06T08:14:57.879Z,0.5
2023-02-06T08:19:57.883Z,0.6
2023-02-06T08:24:57.870Z,0.6
2023-02-06T08:29:57.862Z,0.6
2023-02-06T08:34:57.878Z,0.6
2023-02-06T08:39:57.879Z,0.6
2023-02-06T08:44:57.882Z,0.6
2023-02-06T08:49:57.874Z,0.7
2023-02-06T08:54:57.878Z,0.7
2023-02-06T08:59:57.880Z,0.7
2023-02-06T09:04:57.903Z,0.8
2023-02-06T09:09:57.865Z,0.8
2023-02-06T09:14:57.899Z,0.8
2023-02-06T09:19:57.902Z,0.8
2023-02-06T09:24:57.897Z,0.8
2023-02-06T09:29:57.876Z,0.9
2023-02-06T09:34:57.915Z,0.9
2023-02-06T09:39:57.952Z,0.9
2023-02-06T09:44:58.038Z,0.9
2023-02-06T09:49:57.912Z,1
2023-02-06T09:54:57.890Z,1
2023-02-06T09:59:58.009Z,1
2023-02-06T10:04:57.945Z,1.1
2023-02-06T10:09:57.881Z,1.1
2023-02-06T10:14:57.878Z,1.1
2023-02-06T10:19:57.905Z,1.1
2023-02-06T10:24:57.864Z,1.2
2023-02-06T10:29:57.864Z,1.2
2023-02-06T10:34:58.050Z,1.3
2023-02-06T10:39:57.898Z,1.3
2023-02-06T10:45:03.680Z,1.3
2023-02-06T10:49:57.862Z,1.4
2023-02-06T10:54:57.895Z,1.4
2023-02-06T10:59:57.966Z,1.4
2023-02-06T11:04:57.941Z,1.4
2023-02-06T11:09:57.874Z,1.5
2023-02-06T11:14:57.983Z,1.6
2023-02-06T11:19:57.898Z,1.6
2023-02-06T11:24:57.891Z,1.6
2023-02-06T11:29:57.894Z,1.6
2023-02-06T11:34:57.906Z,1.7
2023-02-06T11:39:57.906Z,1.7
2023-02-06T11:44:57.907Z,1.8
2023-02-06T11:49:57.980Z,1.8
2023-02-06T11:54:58.009Z,1.8
2023-02-06T11:59:58.027Z,1.8
2023-02-06T12:04:58.015Z,1.9
2023-02-06T12:09:58.024Z,1.9
2023-02-06T12:14:58.016Z,1.9
2023-02-06T12:19:58.023Z,1.9
2023-02-06T12:24:58.022Z,2
2023-02-06T12:29:58.015Z,2
2023-02-06T12:34:58.161Z,2
2023-02-06T12:39:58.060Z,2.1
2023-02-06T12:44:58.033Z,2.1
2023-02-06T12:49:58.018Z,2.1
2023-02-06T12:54:58.059Z,2.1
2023-02-06T12:59:58.719Z,2.1
2023-02-06T13:04:58.183Z,2.1
2023-02-06T13:09:58.030Z,2.2
2023-02-06T13:14:58.062Z,2.2
2023-02-06T13:19:58.056Z,2.2
2023-02-06T13:24:58.138Z,2.2
2023-02-06T13:29:58.131Z,2.3
2023-02-06T13:34:58.144Z,2.3
2023-02-06T13:39:58.170Z,2.3
2023-02-06T13:44:58.311Z,2.3
2023-02-06T13:49:58.105Z,2.3
2023-02-06T13:54:58.142Z,2.3
2023-02-06T13:59:58.222Z,2.4
2023-02-06T14:04:58.209Z,2.4
2023-02-06T14:09:58.047Z,2.4
2023-02-06T14:14:58.178Z,2.4
2023-02-06T14:19:58.167Z,2.4
2023-02-06T14:24:58.146Z,2.5
2023-02-06T14:29:58.246Z,2.5
2023-02-06T14:34:58.402Z,2.5
2023-02-06T14:40:04.347Z,2.5
2023-02-06T14:44:58.250Z,2.6
2023-02-06T14:49:58.193Z,2.6
2023-02-06T14:54:58.206Z,2.6
2023-02-06T14:59:58.211Z,2.6
2023-02-06T15:04:58.176Z,2.6
2023-02-06T15:09:58.208Z,2.6
2023-02-06T15:14:58.212Z,2.6
2023-02-06T15:19:58.388Z,2.6
2023-02-06T15:24:58.191Z,2.6
2023-02-06T15:29:58.217Z,2.7
2023-02-06T15:34:58.224Z,2.6
2023-02-06T15:39:58.239Z,2.6
2023-02-06T15:44:58.206Z,2.6
2023-02-06T15:49:58.209Z,2.6
2023-02-06T15:54:58.205Z,2.6
2023-02-06T15:59:58.222Z,2.6
2023-02-06T16:04:58.216Z,2.6
2023-02-06T16:09:58.196Z,2.6
2023-02-06T16:14:58.205Z,2.6
2023-02-06T16:19:58.248Z,2.6
2023-02-06T16:24:58.206Z,2.6
2023-02-06T16:29:58.215Z,2.5
2023-02-06T16:34:58.262Z,2.5
2023-02-06T16:39:58.203Z,2.4
2023-02-06T16:44:58.191Z,2.4
2023-02-06T16:49:58.167Z,2.4
2023-02-06T16:54:58.203Z,2.4
2023-02-06T16:59:58.219Z,2.3
2023-02-06T17:04:58.266Z,2.3
2023-02-06T17:09:58.184Z,2.3
2023-02-06T17:14:58.240Z,2.2
2023-02-06T17:19:58.203Z,2.1
2023-02-06T17:24:58.214Z,2.1
2023-02-06T17:29:58.235Z,2.1
2023-02-06T17:34:58.322Z,2
2023-02-06T17:39:58.342Z,1.9
2023-02-06T17:44:58.629Z,1.9
2023-02-06T17:49:58.486Z,1.9
2023-02-06T17:54:58.404Z,1.8
2023-02-06T17:59:58.498Z,1.8
2023-02-06T18:04:58.529Z,1.8
2023-02-06T18:09:58.360Z,1.7
2023-02-06T18:14:58.539Z,1.6
2023-02-06T18:19:58.386Z,1.6
2023-02-06T18:24:58.351Z,1.6
2023-02-06T18:29:58.337Z,1.5
2023-02-06T18:34:58.542Z,1.4
2023-02-06T18:39:58.444Z,1.4
2023-02-06T18:44:58.352Z,1.4
2023-02-06T18:49:58.339Z,1.3
2023-02-06T18:54:58.501Z,1.3
2023-02-06T18:59:58.357Z,1.2
2023-02-06T19:04:58.330Z,1.1
2023-02-06T19:09:58.332Z,1.1
2023-02-06T19:14:58.340Z,1.1
2023-02-06T19:19:58.354Z,1
2023-02-06T19:24:58.353Z,0.9
2023-02-06T19:29:58.401Z,0.9
2023-02-06T19:34:58.480Z,0.8
2023-02-06T19:39:58.357Z,0.8
2023-02-06T19:44:58.357Z,0.8
2023-02-06T19:49:58.317Z,0.7
2023-02-06T19:54:58.343Z,0.6
2023-02-06T19:59:58.353Z,0.6
2023-02-06T20:04:58.318Z,0.5
2023-02-06T20:09:58.316Z,0.4
2023-02-06T20:14:58.325Z,0.4
2023-02-06T20:19:58.393Z,0.4
2023-02-06T20:24:58.488Z,0.3
2023-02-06T20:29:58.316Z,0.3
2023-02-06T20:34:58.327Z,0.2
2023-02-06T20:39:58.342Z,0.1
2023-02-06T20:44:58.327Z,0.1
2023-02-06T20:49:58.315Z,0.1
2023-02-06T20:54:58.320Z,0
2023-02-06T20:59:58.335Z,0
2023-02-06T21:04:58.297Z,-0.1
2023-02-06T21:09:58.303Z,-0.1
2023-02-06T21:14:58.319Z,-0.2
2023-02-06T21:19:58.336Z,-0.3
2023-02-06T21:24:58.310Z,-0.3
2023-02-06T21:29:58.306Z,-0.3
2023-02-06T21:34:58.315Z,-0.4
2023-02-06T21:39:58.326Z,-0.4
2023-02-06T21:44:58.302Z,-0.5
2023-02-06T21:49:58.296Z,-0.5
2023-02-06T21:54:58.321Z,-0.6
2023-02-06T21:59:58.323Z,-0.6
2023-02-06T22:04:58.290Z,-0.6
2023-02-06T22:09:58.352Z,-0.7
2023-02-06T22:14:58.299Z,-0.7
2023-02-06T22:19:58.301Z,-0.8
2023-02-06T22:24:58.273Z,-0.8
2023-02-06T22:29:58.266Z,-0.8
2023-02-06T22:34:58.278Z,-0.9
2023-02-06T22:39:58.355Z,-0.9
2023-02-06T22:44:58.289Z,-0.9
2023-02-06T22:49:58.269Z,-1
2023-02-06T22:54:58.266Z,-1
2023-02-06T22:59:58.376Z,-1
2023-02-06T23:04:58.302Z,-1.1
2023-02-06T23:09:58.264Z,-1.1
2023-02-06T23:14:58.471Z,-1.1
2023-02-06T23:19:58.314Z,-1.1
2023-02-06T23:24:58.269Z,-1.1
2023-02-06T23:29:58.252Z,-1.1
2023-02-06T23:34:58.265Z,-1.1
2023-02-06T23:39:58.369Z,-1.2
2023-02-06T23:44:58.259Z,-1.3
2023-02-06T23:49:58.250Z,-1.3
2023-02-06T23:54:58.281Z,-1.3
2023-02-06T23:59:58.318Z,-1.3
